Le Ponant — FGZZ — position and weather

sailwx.info

Track history (hours):
 
Tides and Currents Weather Stations Pressure Air Temp Water Temp Dewpoint Dewpoint Depression Visibility Wind Speed Wind Dir Waves Ship Positions

Le Ponant

Operator: Compangy des Iles du Ponant

Last reported at 2015-Jul-01 21:33 UTC. Time now 2015-Jul-02 03:34 UTC.
Position N 39°33' E 012°52'.

Length 84 m; draft 4.2 m.

Type: Passenger vessel. MMSI: 227186000.

Date/timePositionNaut miles runAvg speedWind from/ knotsBaromVisibWave heightAir tempDewpointWater temp
2015-Jul-01 21:33N 39°33' E 012°52'1010.4
2015-Jul-01 20:34N 39°28' E 013°03'1010.5
2015-Jul-01 19:33N 39°22' E 013°15'98 9.6
2015-Jul-01 09:24N 38°26' E 014°57'2 0.7
2015-Jul-01 06:22N 38°28' E 014°58'0 0.0
2015-Jul-01 05:34N 38°28' E 014°58'1 0.5
2015-Jul-01 04:18N 38°28' E 014°58'4 5.7
2015-Jul-01 03:32N 38°30' E 015°04'6 5.7
2015-Jul-01 02:33N 38°34' E 015°08'7 6.2
2015-Jul-01 01:24N 38°41' E 015°12'5 5.9
2015-Jul-01 00:30N 38°45' E 015°15'4 1.0
2015-Jun-30 20:04N 38°48' E 015°10'20 7.6
2015-Jun-30 17:23N 38°32' E 015°27'910.0
2015-Jun-30 16:30N 38°25' E 015°34'1010.1
2015-Jun-30 15:33N 38°18' E 015°42'1010.2
2015-Jun-30 14:33N 38°08' E 015°36'9 9.2
2015-Jun-30 13:33N 37°60' E 015°33'9 8.9
2015-Jun-30 12:31N 37°54' E 015°24'7 6.4
2015-Jun-30 11:27N 37°50' E 015°17'0 0.0
2015-Jun-30 10:07N 37°50' E 015°17'0 0.0
2015-Jun-30 08:32N 37°50' E 015°17'0 0.0
2015-Jun-30 07:03N 37°50' E 015°17'0 0.0
2015-Jun-30 06:33N 37°50' E 015°17'2 1.8
2015-Jun-30 05:33N 37°48' E 015°18'59 9.6
2015-Jun-29 23:23N 36°49' E 015°20'3310.1
2015-Jun-29 20:07N 36°22' E 014°57'810.6
2015-Jun-29 19:23N 36°15' E 014°51'910.5
2015-Jun-29 18:33N 36°08' E 014°45'1010.3
2015-Jun-29 17:33N 35°60' E 014°37'8 0.7
2015-Jun-29 06:33N 35°54' E 014°31'9 8.5
2015-Jun-29 05:33N 36°00' E 014°24'4 4.3
2015-Jun-29 04:33N 36°01' E 014°19'0 0.0
2015-Jun-29 03:33N 36°01' E 014°19'0 0.0
2015-Jun-29 02:33N 36°01' E 014°19'0 0.0
2015-Jun-29 01:33N 36°01' E 014°19'0 0.0
2015-Jun-29 00:33N 36°01' E 014°19'0 0.0
2015-Jun-28 23:33N 36°01' E 014°19'0 0.0
2015-Jun-28 22:33N 36°01' E 014°19'0 0.0
2015-Jun-28 21:33N 36°01' E 014°19'0 0.0
2015-Jun-28 20:33N 36°01' E 014°19'0 0.0
2015-Jun-28 19:27N 36°01' E 014°19'0 0.0
2015-Jun-28 18:33N 36°01' E 014°19'0 0.0
2015-Jun-28 17:33N 36°01' E 014°19'0 0.0
2015-Jun-28 16:33N 36°01' E 014°19'0 0.0
2015-Jun-28 15:33N 36°01' E 014°19'0 0.0
2015-Jun-28 14:33N 36°01' E 014°19'0 0.0
2015-Jun-28 13:33N 36°01' E 014°19'0 0.0
2015-Jun-28 12:30N 36°01' E 014°19'0 0.0
2015-Jun-28 11:33N 36°01' E 014°19'0 0.0
2015-Jun-28 10:33N 36°01' E 014°19'0 0.0
2015-Jun-28 09:33N 36°01' E 014°19'0 0.0
2015-Jun-28 08:33N 36°01' E 014°19'0 0.0
2015-Jun-28 07:33N 36°01' E 014°19'3 2.6
2015-Jun-28 06:33N 36°02' E 014°22'1010.1
2015-Jun-28 05:33N 36°10' E 014°30'10 9.8
2015-Jun-28 04:33N 36°16' E 014°39'99 8.1
2015-Jun-27 16:20N 37°50' E 015°19'2 0.4
2015-Jun-27 11:29N 37°50' E 015°17'3 0.4
2015-Jun-27 05:29N 37°49' E 015°20'5 5.0
2015-Jun-27 04:32N 37°45' E 015°24'100 3.0
2015-Jun-25 19:14N 36°12' E 014°40'6 7.4
2015-Jun-25 18:23N 36°06' E 014°37'6 7.9
2015-Jun-25 17:33N 36°00' E 014°34'7 0.3
2015-Jun-24 16:34N 35°54' E 014°31'4 3.6
2015-Jun-24 15:33N 35°57' E 014°29'9 9.2
2015-Jun-24 14:33N 36°00' E 014°19'1 0.9
2015-Jun-24 13:31N 36°01' E 014°19'0 0.0
2015-Jun-24 12:25N 36°01' E 014°19'0 0.0
2015-Jun-24 11:31N 36°01' E 014°19'0 0.0
2015-Jun-24 10:31N 36°01' E 014°19'0 0.0
2015-Jun-24 09:31N 36°01' E 014°19'0 0.0
2015-Jun-24 08:31N 36°01' E 014°19'0 0.0
2015-Jun-24 07:31N 36°01' E 014°19'0 0.0
2015-Jun-24 06:28N 36°01' E 014°19'0 0.2
2015-Jun-24 05:33N 36°01' E 014°19'6 6.3
2015-Jun-24 04:33N 36°01' E 014°11'8 7.6
2015-Jun-24 03:32N 36°06' E 014°04'8 7.9
2015-Jun-24 02:33N 36°12' E 013°57'8 8.4
2015-Jun-24 01:33N 36°18' E 013°50'10 9.6
2015-Jun-24 00:33N 36°24' E 013°42'9 9.3
2015-Jun-23 23:33N 36°31' E 013°34'9 9.4
2015-Jun-23 22:34N 36°38' E 013°26'9 9.3
2015-Jun-23 21:33N 36°45' E 013°18'9 9.1
2015-Jun-23 20:33N 36°51' E 013°09'9 8.9
2015-Jun-23 19:33N 36°56' E 013°00'4 8.9
2015-Jun-23 19:05N 36°59' E 012°56'76 3.2
2015-Jun-22 19:32N 38°11' E 012°27'9 8.8
2015-Jun-22 18:33N 38°13' E 012°38'10 0.7
2015-Jun-22 04:30N 38°16' E 012°49'8 7.0
2015-Jun-22 03:21N 38°23' E 012°56'7 7.5
2015-Jun-22 02:27N 38°28' E 013°01'7 7.4
2015-Jun-22 01:33N 38°34' E 013°06'1 0.8
2015-Jun-22 00:32N 38°33' E 013°05'2 1.8
2015-Jun-21 23:15N 38°32' E 013°03'4 6.4
2015-Jun-21 22:33N 38°35' E 013°07'  
Track history (hours):
 
Tides and Currents Weather Stations Pressure Air Temp Water Temp Dewpoint Dewpoint Depression Visibility Wind Speed Wind Dir Waves Ship Positions

Le Ponant

Operator: Compangy des Iles du Ponant

Last reported at 2015-Jul-01 21:33 UTC. Time now 2015-Jul-02 03:34 UTC.
Position N 39°33' E 012°52'.

Length 84 m; draft 4.2 m.

Type: Passenger vessel. MMSI: 227186000.

Date/timePositionNaut miles runAvg speedWind from/ knotsBaromVisibWave heightAir tempDewpointWater temp
2015-Jul-01 21:33N 39°33' E 012°52'1010.4
2015-Jul-01 20:34N 39°28' E 013°03'1010.5
2015-Jul-01 19:33N 39°22' E 013°15'98 9.6
2015-Jul-01 09:24N 38°26' E 014°57'2 0.7
2015-Jul-01 06:22N 38°28' E 014°58'0 0.0
2015-Jul-01 05:34N 38°28' E 014°58'1 0.5
2015-Jul-01 04:18N 38°28' E 014°58'4 5.7
2015-Jul-01 03:32N 38°30' E 015°04'6 5.7
2015-Jul-01 02:33N 38°34' E 015°08'7 6.2
2015-Jul-01 01:24N 38°41' E 015°12'5 5.9
2015-Jul-01 00:30N 38°45' E 015°15'4 1.0
2015-Jun-30 20:04N 38°48' E 015°10'20 7.6
2015-Jun-30 17:23N 38°32' E 015°27'910.0
2015-Jun-30 16:30N 38°25' E 015°34'1010.1
2015-Jun-30 15:33N 38°18' E 015°42'1010.2
2015-Jun-30 14:33N 38°08' E 015°36'9 9.2
2015-Jun-30 13:33N 37°60' E 015°33'9 8.9
2015-Jun-30 12:31N 37°54' E 015°24'7 6.4
2015-Jun-30 11:27N 37°50' E 015°17'0 0.0
2015-Jun-30 10:07N 37°50' E 015°17'0 0.0
2015-Jun-30 08:32N 37°50' E 015°17'0 0.0
2015-Jun-30 07:03N 37°50' E 015°17'0 0.0
2015-Jun-30 06:33N 37°50' E 015°17'2 1.8
2015-Jun-30 05:33N 37°48' E 015°18'59 9.6
2015-Jun-29 23:23N 36°49' E 015°20'3310.1
2015-Jun-29 20:07N 36°22' E 014°57'810.6
2015-Jun-29 19:23N 36°15' E 014°51'910.5
2015-Jun-29 18:33N 36°08' E 014°45'1010.3
2015-Jun-29 17:33N 35°60' E 014°37'8 0.7
2015-Jun-29 06:33N 35°54' E 014°31'9 8.5
2015-Jun-29 05:33N 36°00' E 014°24'4 4.3
2015-Jun-29 04:33N 36°01' E 014°19'0 0.0
2015-Jun-29 03:33N 36°01' E 014°19'0 0.0
2015-Jun-29 02:33N 36°01' E 014°19'0 0.0
2015-Jun-29 01:33N 36°01' E 014°19'0 0.0
2015-Jun-29 00:33N 36°01' E 014°19'0 0.0
2015-Jun-28 23:33N 36°01' E 014°19'0 0.0
2015-Jun-28 22:33N 36°01' E 014°19'0 0.0
2015-Jun-28 21:33N 36°01' E 014°19'0 0.0
2015-Jun-28 20:33N 36°01' E 014°19'0 0.0
2015-Jun-28 19:27N 36°01' E 014°19'0 0.0
2015-Jun-28 18:33N 36°01' E 014°19'0 0.0
2015-Jun-28 17:33N 36°01' E 014°19'0 0.0
2015-Jun-28 16:33N 36°01' E 014°19'0 0.0
2015-Jun-28 15:33N 36°01' E 014°19'0 0.0
2015-Jun-28 14:33N 36°01' E 014°19'0 0.0
2015-Jun-28 13:33N 36°01' E 014°19'0 0.0
2015-Jun-28 12:30N 36°01' E 014°19'0 0.0
2015-Jun-28 11:33N 36°01' E 014°19'0 0.0
2015-Jun-28 10:33N 36°01' E 014°19'0 0.0
2015-Jun-28 09:33N 36°01' E 014°19'0 0.0
2015-Jun-28 08:33N 36°01' E 014°19'0 0.0
2015-Jun-28 07:33N 36°01' E 014°19'3 2.6
2015-Jun-28 06:33N 36°02' E 014°22'1010.1
2015-Jun-28 05:33N 36°10' E 014°30'10 9.8
2015-Jun-28 04:33N 36°16' E 014°39'99 8.1
2015-Jun-27 16:20N 37°50' E 015°19'2 0.4
2015-Jun-27 11:29N 37°50' E 015°17'3 0.4
2015-Jun-27 05:29N 37°49' E 015°20'5 5.0
2015-Jun-27 04:32N 37°45' E 015°24'100 3.0
2015-Jun-25 19:14N 36°12' E 014°40'6 7.4
2015-Jun-25 18:23N 36°06' E 014°37'6 7.9
2015-Jun-25 17:33N 36°00' E 014°34'7 0.3
2015-Jun-24 16:34N 35°54' E 014°31'4 3.6
2015-Jun-24 15:33N 35°57' E 014°29'9 9.2
2015-Jun-24 14:33N 36°00' E 014°19'1 0.9
2015-Jun-24 13:31N 36°01' E 014°19'0 0.0
2015-Jun-24 12:25N 36°01' E 014°19'0 0.0
2015-Jun-24 11:31N 36°01' E 014°19'0 0.0
2015-Jun-24 10:31N 36°01' E 014°19'0 0.0
2015-Jun-24 09:31N 36°01' E 014°19'0 0.0
2015-Jun-24 08:31N 36°01' E 014°19'0 0.0
2015-Jun-24 07:31N 36°01' E 014°19'0 0.0
2015-Jun-24 06:28N 36°01' E 014°19'0 0.2
2015-Jun-24 05:33N 36°01' E 014°19'6 6.3
2015-Jun-24 04:33N 36°01' E 014°11'8 7.6
2015-Jun-24 03:32N 36°06' E 014°04'8 7.9
2015-Jun-24 02:33N 36°12' E 013°57'8 8.4
2015-Jun-24 01:33N 36°18' E 013°50'10 9.6
2015-Jun-24 00:33N 36°24' E 013°42'9 9.3
2015-Jun-23 23:33N 36°31' E 013°34'9 9.4
2015-Jun-23 22:34N 36°38' E 013°26'9 9.3
2015-Jun-23 21:33N 36°45' E 013°18'9 9.1
2015-Jun-23 20:33N 36°51' E 013°09'9 8.9
2015-Jun-23 19:33N 36°56' E 013°00'4 8.9
2015-Jun-23 19:05N 36°59' E 012°56'76 3.2
2015-Jun-22 19:32N 38°11' E 012°27'9 8.8
2015-Jun-22 18:33N 38°13' E 012°38'10 0.7
2015-Jun-22 04:30N 38°16' E 012°49'8 7.0
2015-Jun-22 03:21N 38°23' E 012°56'7 7.5
2015-Jun-22 02:27N 38°28' E 013°01'7 7.4
2015-Jun-22 01:33N 38°34' E 013°06'1 0.8
2015-Jun-22 00:32N 38°33' E 013°05'2 1.8
2015-Jun-21 23:15N 38°32' E 013°03'4 6.4
2015-Jun-21 22:33N 38°35' E 013°07'  

Dump ship's entire track history